sensor_id;sensor_type;location;lat;lon;timestamp;temperature;humidity
49042;DHT22;34859;51.608;11.462;2023-08-06T00:01:13;16.20;99.90
49042;DHT22;34859;51.608;11.462;2023-08-06T00:03:39;16.10;99.90
49042;DHT22;34859;51.608;11.462;2023-08-06T00:06:05;16.00;99.90
49042;DHT22;34859;51.608;11.462;2023-08-06T00:08:31;16.00;99.90
49042;DHT22;34859;51.608;11.462;2023-08-06T00:10:57;15.90;99.90
49042;DHT22;34859;51.608;11.462;2023-08-06T00:13:22;15.90;99.90
49042;DHT22;34859;51.608;11.462;2023-08-06T00:15:48;15.80;99.90
49042;DHT22;34859;51.608;11.462;2023-08-06T00:18:14;15.80;99.90
49042;DHT22;34859;51.608;11.462;2023-08-06T00:20:39;15.70;99.90
49042;DHT22;34859;51.608;11.462;2023-08-06T00:23:07;15.70;99.90
49042;DHT22;34859;51.608;11.462;2023-08-06T00:25:33;15.60;99.90
49042;DHT22;34859;51.608;11.462;2023-08-06T00:27:58;15.60;99.90
49042;DHT22;34859;51.608;11.462;2023-08-06T00:30:24;15.60;99.90
49042;DHT22;34859;51.608;11.462;2023-08-06T00:32:50;15.60;99.90
49042;DHT22;34859;51.608;11.462;2023-08-06T00:35:17;15.60;99.90
49042;DHT22;34859;51.608;11.462;2023-08-06T00:37:42;15.70;99.90
49042;DHT22;34859;51.608;11.462;2023-08-06T00:40:10;15.60;99.90
49042;DHT22;34859;51.608;11.462;2023-08-06T00:42:37;15.60;99.90
49042;DHT22;34859;51.608;11.462;2023-08-06T00:45:02;15.60;99.90
49042;DHT22;34859;51.608;11.462;2023-08-06T00:47:28;15.60;99.90
49042;DHT22;34859;51.608;11.462;2023-08-06T00:49:54;15.60;99.90
49042;DHT22;34859;51.608;11.462;2023-08-06T00:52:19;15.60;99.90
49042;DHT22;34859;51.608;11.462;2023-08-06T00:54:45;15.60;99.90
49042;DHT22;34859;51.608;11.462;2023-08-06T00:57:10;15.50;99.90
49042;DHT22;34859;51.608;11.462;2023-08-06T00:59:37;15.50;99.90
49042;DHT22;34859;51.608;11.462;2023-08-06T01:02:03;15.60;99.90
49042;DHT22;34859;51.608;11.462;2023-08-06T01:04:28;15.60;99.90
49042;DHT22;34859;51.608;11.462;2023-08-06T01:07:12;15.60;99.90
49042;DHT22;34859;51.608;11.462;2023-08-06T01:09:55;15.60;99.90
49042;DHT22;34859;51.608;11.462;2023-08-06T01:15:11;15.60;99.90
49042;DHT22;34859;51.608;11.462;2023-08-06T01:17:39;15.60;99.90
49042;DHT22;34859;51.608;11.462;2023-08-06T01:20:07;15.60;99.90
49042;DHT22;34859;51.608;11.462;2023-08-06T01:22:32;15.60;99.90
49042;DHT22;34859;51.608;11.462;2023-08-06T01:24:58;15.50;99.90
49042;DHT22;34859;51.608;11.462;2023-08-06T01:27:28;15.60;99.90
49042;DHT22;34859;51.608;11.462;2023-08-06T01:32:27;15.60;99.90
49042;DHT22;34859;51.608;11.462;2023-08-06T01:34:55;15.60;99.90
49042;DHT22;34859;51.608;11.462;2023-08-06T01:37:21;15.60;99.90
49042;DHT22;34859;51.608;11.462;2023-08-06T01:39:47;15.60;99.90
49042;DHT22;34859;51.608;11.462;2023-08-06T01:42:12;15.50;99.90
49042;DHT22;34859;51.608;11.462;2023-08-06T01:44:38;15.50;99.90
49042;DHT22;34859;51.608;11.462;2023-08-06T01:47:04;15.50;99.90
49042;DHT22;34859;51.608;11.462;2023-08-06T01:49:29;15.50;99.90
49042;DHT22;34859;51.608;11.462;2023-08-06T01:51:57;15.50;99.90
49042;DHT22;34859;51.608;11.462;2023-08-06T01:54:22;15.50;99.90
49042;DHT22;34859;51.608;11.462;2023-08-06T01:56:48;15.40;99.90
49042;DHT22;34859;51.608;11.462;2023-08-06T01:59:13;15.50;99.90
49042;DHT22;34859;51.608;11.462;2023-08-06T02:01:39;15.40;99.90
49042;DHT22;34859;51.608;11.462;2023-08-06T02:04:05;15.50;99.90
49042;DHT22;34859;51.608;11.462;2023-08-06T02:06:30;15.50;99.90
49042;DHT22;34859;51.608;11.462;2023-08-06T02:08:57;15.50;99.90
49042;DHT22;34859;51.608;11.462;2023-08-06T02:11:22;15.40;99.90
49042;DHT22;34859;51.608;11.462;2023-08-06T02:14:06;15.40;99.90
49042;DHT22;34859;51.608;11.462;2023-08-06T02:16:51;15.50;99.90
49042;DHT22;34859;51.608;11.462;2023-08-06T02:19:17;15.50;99.90
49042;DHT22;34859;51.608;11.462;2023-08-06T02:21:42;15.40;99.90
49042;DHT22;34859;51.608;11.462;2023-08-06T02:24:08;15.40;99.90
49042;DHT22;34859;51.608;11.462;2023-08-06T02:26:33;15.40;99.90
49042;DHT22;34859;51.608;11.462;2023-08-06T02:28:59;15.40;99.90
49042;DHT22;34859;51.608;11.462;2023-08-06T02:31:25;15.40;99.90
49042;DHT22;34859;51.608;11.462;2023-08-06T02:34:00;15.40;99.90
49042;DHT22;34859;51.608;11.462;2023-08-06T02:36:32;15.30;99.90
49042;DHT22;34859;51.608;11.462;2023-08-06T02:38:58;15.30;99.90
49042;DHT22;34859;51.608;11.462;2023-08-06T02:41:24;15.30;99.90
49042;DHT22;34859;51.608;11.462;2023-08-06T02:43:49;15.40;99.90
49042;DHT22;34859;51.608;11.462;2023-08-06T02:46:15;15.30;99.90
49042;DHT22;34859;51.608;11.462;2023-08-06T02:48:40;15.30;99.90
49042;DHT22;34859;51.608;11.462;2023-08-06T02:51:07;15.30;99.90
49042;DHT22;34859;51.608;11.462;2023-08-06T02:53:32;15.40;99.90
49042;DHT22;34859;51.608;11.462;2023-08-06T02:56:18;15.30;99.90
49042;DHT22;34859;51.608;11.462;2023-08-06T02:58:44;15.30;99.90
49042;DHT22;34859;51.608;11.462;2023-08-06T03:01:09;15.30;99.90
49042;DHT22;34859;51.608;11.462;2023-08-06T03:03:35;15.30;99.90
49042;DHT22;34859;51.608;11.462;2023-08-06T03:06:01;15.40;99.90
49042;DHT22;34859;51.608;11.462;2023-08-06T03:08:30;15.40;99.90
49042;DHT22;34859;51.608;11.462;2023-08-06T03:10:57;15.30;99.90
49042;DHT22;34859;51.608;11.462;2023-08-06T03:13:23;15.30;99.90
49042;DHT22;34859;51.608;11.462;2023-08-06T03:15:58;15.30;99.90
49042;DHT22;34859;51.608;11.462;2023-08-06T03:18:24;15.20;99.90
49042;DHT22;34859;51.608;11.462;2023-08-06T03:20:51;15.20;99.90
49042;DHT22;34859;51.608;11.462;2023-08-06T03:23:18;15.20;99.90
49042;DHT22;34859;51.608;11.462;2023-08-06T03:25:44;15.20;99.90
49042;DHT22;34859;51.608;11.462;2023-08-06T03:28:10;15.20;99.90
49042;DHT22;34859;51.608;11.462;2023-08-06T03:30:40;15.20;99.90
49042;DHT22;34859;51.608;11.462;2023-08-06T03:33:05;15.30;99.90
49042;DHT22;34859;51.608;11.462;2023-08-06T03:35:31;15.10;99.90
49042;DHT22;34859;51.608;11.462;2023-08-06T03:37:57;15.10;99.90
49042;DHT22;34859;51.608;11.462;2023-08-06T03:40:22;15.10;99.90
49042;DHT22;34859;51.608;11.462;2023-08-06T03:42:48;15.10;99.90
49042;DHT22;34859;51.608;11.462;2023-08-06T03:45:14;15.10;99.90
49042;DHT22;34859;51.608;11.462;2023-08-06T03:47:40;15.10;99.90
49042;DHT22;34859;51.608;11.462;2023-08-06T03:50:09;15.10;99.90
49042;DHT22;34859;51.608;11.462;2023-08-06T03:52:37;15.10;99.90
49042;DHT22;34859;51.608;11.462;2023-08-06T03:55:02;15.10;99.90
49042;DHT22;34859;51.608;11.462;2023-08-06T03:57:28;15.10;99.90
49042;DHT22;34859;51.608;11.462;2023-08-06T03:59:54;15.10;99.90
49042;DHT22;34859;51.608;11.462;2023-08-06T04:02:19;15.10;99.90
49042;DHT22;34859;51.608;11.462;2023-08-06T04:04:45;15.10;99.90
49042;DHT22;34859;51.608;11.462;2023-08-06T04:07:10;15.10;99.90
49042;DHT22;34859;51.608;11.462;2023-08-06T04:09:58;15.10;99.90
49042;DHT22;34859;51.608;11.462;2023-08-06T04:12:42;15.10;99.90
49042;DHT22;34859;51.608;11.462;2023-08-06T04:15:28;15.10;99.90
49042;DHT22;34859;51.608;11.462;2023-08-06T04:18:14;15.10;99.90
49042;DHT22;34859;51.608;11.462;2023-08-06T04:21:01;15.10;99.90
49042;DHT22;34859;51.608;11.462;2023-08-06T04:23:46;15.10;99.90
49042;DHT22;34859;51.608;11.462;2023-08-06T04:26:17;15.10;99.90
49042;DHT22;34859;51.608;11.462;2023-08-06T04:28:43;15.10;99.90
49042;DHT22;34859;51.608;11.462;2023-08-06T04:31:08;15.10;99.90
49042;DHT22;34859;51.608;11.462;2023-08-06T04:33:34;15.20;99.90
49042;DHT22;34859;51.608;11.462;2023-08-06T04:36:00;15.20;99.90
49042;DHT22;34859;51.608;11.462;2023-08-06T04:38:27;15.20;99.90
49042;DHT22;34859;51.608;11.462;2023-08-06T04:40:53;15.20;99.90
49042;DHT22;34859;51.608;11.462;2023-08-06T04:43:19;15.20;99.90
49042;DHT22;34859;51.608;11.462;2023-08-06T04:45:51;15.20;99.90
49042;DHT22;34859;51.608;11.462;2023-08-06T04:48:18;15.20;99.90
49042;DHT22;34859;51.608;11.462;2023-08-06T04:50:44;15.20;99.90
49042;DHT22;34859;51.608;11.462;2023-08-06T04:53:10;15.20;99.90
49042;DHT22;34859;51.608;11.462;2023-08-06T04:55:37;15.20;99.90
49042;DHT22;34859;51.608;11.462;2023-08-06T04:58:03;15.20;99.90
49042;DHT22;34859;51.608;11.462;2023-08-06T05:00:31;15.30;99.90
49042;DHT22;34859;51.608;11.462;2023-08-06T05:02:59;15.30;99.90
49042;DHT22;34859;51.608;11.462;2023-08-06T05:05:24;15.30;99.90
49042;DHT22;34859;51.608;11.462;2023-08-06T05:07:50;15.30;99.90
49042;DHT22;34859;51.608;11.462;2023-08-06T05:10:36;15.40;99.90
49042;DHT22;34859;51.608;11.462;2023-08-06T05:13:01;15.40;99.90
49042;DHT22;34859;51.608;11.462;2023-08-06T05:15:28;15.40;99.90
49042;DHT22;34859;51.608;11.462;2023-08-06T05:17:53;15.40;99.90
49042;DHT22;34859;51.608;11.462;2023-08-06T05:20:20;15.50;99.90
49042;DHT22;34859;51.608;11.462;2023-08-06T05:22:47;15.50;99.90
49042;DHT22;34859;51.608;11.462;2023-08-06T05:25:13;15.50;99.90
49042;DHT22;34859;51.608;11.462;2023-08-06T05:27:39;15.50;99.90
49042;DHT22;34859;51.608;11.462;2023-08-06T05:30:04;15.60;99.90
49042;DHT22;34859;51.608;11.462;2023-08-06T05:32:30;15.60;99.90
49042;DHT22;34859;51.608;11.462;2023-08-06T05:34:57;15.60;99.90
49042;DHT22;34859;51.608;11.462;2023-08-06T05:37:22;15.60;99.90
49042;DHT22;34859;51.608;11.462;2023-08-06T05:39:48;15.60;99.90
49042;DHT22;34859;51.608;11.462;2023-08-06T05:42:13;15.60;99.90
49042;DHT22;34859;51.608;11.462;2023-08-06T05:44:40;15.70;99.90
49042;DHT22;34859;51.608;11.462;2023-08-06T05:47:07;15.70;99.90
49042;DHT22;34859;51.608;11.462;2023-08-06T05:49:32;15.70;99.90
49042;DHT22;34859;51.608;11.462;2023-08-06T05:51:58;15.80;99.90
49042;DHT22;34859;51.608;11.462;2023-08-06T05:54:31;15.80;99.90
49042;DHT22;34859;51.608;11.462;2023-08-06T05:57:17;15.80;99.90
49042;DHT22;34859;51.608;11.462;2023-08-06T05:59:43;15.70;99.90
49042;DHT22;34859;51.608;11.462;2023-08-06T06:02:09;15.70;99.90
49042;DHT22;34859;51.608;11.462;2023-08-06T06:04:37;15.70;99.90
49042;DHT22;34859;51.608;11.462;2023-08-06T06:07:03;15.70;99.90
49042;DHT22;34859;51.608;11.462;2023-08-06T06:09:30;15.70;99.90
49042;DHT22;34859;51.608;11.462;2023-08-06T06:11:57;15.80;99.90
49042;DHT22;34859;51.608;11.462;2023-08-06T06:14:22;15.70;99.90
49042;DHT22;34859;51.608;11.462;2023-08-06T06:16:48;15.80;99.90
49042;DHT22;34859;51.608;11.462;2023-08-06T06:19:14;15.80;99.90
49042;DHT22;34859;51.608;11.462;2023-08-06T06:21:40;15.80;99.90
49042;DHT22;34859;51.608;11.462;2023-08-06T06:24:07;15.90;99.90
49042;DHT22;34859;51.608;11.462;2023-08-06T06:26:33;16.00;99.90
49042;DHT22;34859;51.608;11.462;2023-08-06T06:28:59;16.00;99.90
49042;DHT22;34859;51.608;11.462;2023-08-06T06:31:25;16.10;99.90
49042;DHT22;34859;51.608;11.462;2023-08-06T06:33:50;16.00;99.90
49042;DHT22;34859;51.608;11.462;2023-08-06T06:36:19;16.10;99.90
49042;DHT22;34859;51.608;11.462;2023-08-06T06:38:44;16.10;99.90
49042;DHT22;34859;51.608;11.462;2023-08-06T06:41:10;16.20;99.90
49042;DHT22;34859;51.608;11.462;2023-08-06T06:43:37;16.20;99.90
49042;DHT22;34859;51.608;11.462;2023-08-06T06:46:04;16.20;99.90
49042;DHT22;34859;51.608;11.462;2023-08-06T06:48:31;16.20;99.90
49042;DHT22;34859;51.608;11.462;2023-08-06T06:50:57;16.30;99.90
49042;DHT22;34859;51.608;11.462;2023-08-06T06:53:23;16.30;99.90
49042;DHT22;34859;51.608;11.462;2023-08-06T06:55:53;16.30;99.90
49042;DHT22;34859;51.608;11.462;2023-08-06T06:58:19;16.40;99.90
49042;DHT22;34859;51.608;11.462;2023-08-06T07:00:45;16.40;99.90
49042;DHT22;34859;51.608;11.462;2023-08-06T07:03:11;16.50;99.90
49042;DHT22;34859;51.608;11.462;2023-08-06T07:05:38;16.50;99.90
49042;DHT22;34859;51.608;11.462;2023-08-06T07:08:04;16.60;99.90
49042;DHT22;34859;51.608;11.462;2023-08-06T07:10:29;16.60;99.90
49042;DHT22;34859;51.608;11.462;2023-08-06T07:12:57;16.60;99.90
49042;DHT22;34859;51.608;11.462;2023-08-06T07:15:22;16.70;99.90
49042;DHT22;34859;51.608;11.462;2023-08-06T07:17:50;16.80;99.90
49042;DHT22;34859;51.608;11.462;2023-08-06T07:20:17;16.80;99.90
49042;DHT22;34859;51.608;11.462;2023-08-06T07:22:43;16.80;99.90
49042;DHT22;34859;51.608;11.462;2023-08-06T07:25:09;16.90;99.90
49042;DHT22;34859;51.608;11.462;2023-08-06T07:27:34;17.00;99.90
49042;DHT22;34859;51.608;11.462;2023-08-06T07:30:00;16.90;99.90
49042;DHT22;34859;51.608;11.462;2023-08-06T07:32:28;17.00;99.90
49042;DHT22;34859;51.608;11.462;2023-08-06T07:34:53;17.00;99.90
49042;DHT22;34859;51.608;11.462;2023-08-06T07:37:22;17.00;99.90
49042;DHT22;34859;51.608;11.462;2023-08-06T07:39:48;17.00;99.90
49042;DHT22;34859;51.608;11.462;2023-08-06T07:42:13;17.00;99.90
49042;DHT22;34859;51.608;11.462;2023-08-06T07:44:41;17.10;99.90
49042;DHT22;34859;51.608;11.462;2023-08-06T07:47:07;17.10;99.90
49042;DHT22;34859;51.608;11.462;2023-08-06T07:49:33;17.10;99.90
49042;DHT22;34859;51.608;11.462;2023-08-06T07:51:59;17.20;99.90
49042;DHT22;34859;51.608;11.462;2023-08-06T07:54:24;17.20;99.90
49042;DHT22;34859;51.608;11.462;2023-08-06T07:56:50;17.20;99.90
49042;DHT22;34859;51.608;11.462;2023-08-06T07:59:17;17.30;99.90
49042;DHT22;34859;51.608;11.462;2023-08-06T08:01:43;17.30;99.90
49042;DHT22;34859;51.608;11.462;2023-08-06T08:04:08;17.30;99.90
49042;DHT22;34859;51.608;11.462;2023-08-06T08:06:35;17.40;99.90
49042;DHT22;34859;51.608;11.462;2023-08-06T08:09:00;17.40;99.90
49042;DHT22;34859;51.608;11.462;2023-08-06T08:11:29;17.40;99.90
49042;DHT22;34859;51.608;11.462;2023-08-06T08:13:55;17.50;99.90
49042;DHT22;34859;51.608;11.462;2023-08-06T08:16:20;17.50;99.90
49042;DHT22;34859;51.608;11.462;2023-08-06T08:18:47;17.50;99.90
49042;DHT22;34859;51.608;11.462;2023-08-06T08:21:12;17.50;99.90
49042;DHT22;34859;51.608;11.462;2023-08-06T08:23:38;17.70;99.90
49042;DHT22;34859;51.608;11.462;2023-08-06T08:26:04;17.70;99.90
49042;DHT22;34859;51.608;11.462;2023-08-06T08:28:30;17.80;99.90
49042;DHT22;34859;51.608;11.462;2023-08-06T08:30:57;17.90;99.90
49042;DHT22;34859;51.608;11.462;2023-08-06T08:33:22;18.00;99.90
49042;DHT22;34859;51.608;11.462;2023-08-06T08:35:49;18.10;99.90
49042;DHT22;34859;51.608;11.462;2023-08-06T08:38:14;18.10;99.90
49042;DHT22;34859;51.608;11.462;2023-08-06T08:40:42;18.20;99.90
49042;DHT22;34859;51.608;11.462;2023-08-06T08:43:10;18.20;99.90
49042;DHT22;34859;51.608;11.462;2023-08-06T08:45:39;18.30;99.90
49042;DHT22;34859;51.608;11.462;2023-08-06T08:48:05;18.40;99.90
49042;DHT22;34859;51.608;11.462;2023-08-06T08:50:51;18.60;99.90
49042;DHT22;34859;51.608;11.462;2023-08-06T08:53:17;18.60;99.90
49042;DHT22;34859;51.608;11.462;2023-08-06T08:55:43;18.70;99.90
49042;DHT22;34859;51.608;11.462;2023-08-06T08:58:10;18.80;99.90
49042;DHT22;34859;51.608;11.462;2023-08-06T09:00:37;18.80;99.90
49042;DHT22;34859;51.608;11.462;2023-08-06T09:03:04;18.80;99.90
49042;DHT22;34859;51.608;11.462;2023-08-06T09:05:30;18.90;99.90
49042;DHT22;34859;51.608;11.462;2023-08-06T09:08:04;18.90;99.90
49042;DHT22;34859;51.608;11.462;2023-08-06T09:10:29;18.90;99.90
49042;DHT22;34859;51.608;11.462;2023-08-06T09:12:57;18.90;99.90
49042;DHT22;34859;51.608;11.462;2023-08-06T09:15:26;19.10;99.90
49042;DHT22;34859;51.608;11.462;2023-08-06T09:17:52;19.10;99.90
49042;DHT22;34859;51.608;11.462;2023-08-06T09:20:18;19.20;99.90
49042;DHT22;34859;51.608;11.462;2023-08-06T09:22:43;19.20;99.90
49042;DHT22;34859;51.608;11.462;2023-08-06T09:25:10;19.30;99.90
49042;DHT22;34859;51.608;11.462;2023-08-06T09:27:40;19.30;99.90
49042;DHT22;34859;51.608;11.462;2023-08-06T09:30:11;19.40;99.90
49042;DHT22;34859;51.608;11.462;2023-08-06T09:32:46;19.50;99.90
49042;DHT22;34859;51.608;11.462;2023-08-06T09:35:18;19.60;99.90
49042;DHT22;34859;51.608;11.462;2023-08-06T09:37:44;19.50;99.90
49042;DHT22;34859;51.608;11.462;2023-08-06T09:42:52;19.50;99.90
49042;DHT22;34859;51.608;11.462;2023-08-06T09:45:17;19.60;99.90
49042;DHT22;34859;51.608;11.462;2023-08-06T09:47:43;19.70;99.90
49042;DHT22;34859;51.608;11.462;2023-08-06T09:50:18;19.80;99.90
49042;DHT22;34859;51.608;11.462;2023-08-06T09:52:44;19.80;99.90
49042;DHT22;34859;51.608;11.462;2023-08-06T09:55:13;19.90;99.90
49042;DHT22;34859;51.608;11.462;2023-08-06T09:57:39;19.90;99.90
49042;DHT22;34859;51.608;11.462;2023-08-06T10:00:07;19.90;99.90
49042;DHT22;34859;51.608;11.462;2023-08-06T10:02:35;20.00;99.90
49042;DHT22;34859;51.608;11.462;2023-08-06T10:05:00;20.20;99.90
49042;DHT22;34859;51.608;11.462;2023-08-06T10:07:28;20.20;99.90
49042;DHT22;34859;51.608;11.462;2023-08-06T10:09:54;20.30;99.90
49042;DHT22;34859;51.608;11.462;2023-08-06T10:12:20;20.50;99.90
49042;DHT22;34859;51.608;11.462;2023-08-06T10:14:47;20.70;99.90
49042;DHT22;34859;51.608;11.462;2023-08-06T10:17:34;20.90;99.90
49042;DHT22;34859;51.608;11.462;2023-08-06T10:20:02;21.10;99.90
49042;DHT22;34859;51.608;11.462;2023-08-06T10:22:27;21.10;99.90
49042;DHT22;34859;51.608;11.462;2023-08-06T10:24:57;21.00;99.90
49042;DHT22;34859;51.608;11.462;2023-08-06T10:32:46;21.10;99.90
49042;DHT22;34859;51.608;11.462;2023-08-06T10:35:27;21.10;99.90
49042;DHT22;34859;51.608;11.462;2023-08-06T10:37:53;21.10;99.90
49042;DHT22;34859;51.608;11.462;2023-08-06T10:40:20;21.10;99.90
49042;DHT22;34859;51.608;11.462;2023-08-06T10:42:48;21.00;99.90
49042;DHT22;34859;51.608;11.462;2023-08-06T10:45:14;20.90;99.90
49042;DHT22;34859;51.608;11.462;2023-08-06T10:47:41;20.70;99.90
49042;DHT22;34859;51.608;11.462;2023-08-06T10:50:07;20.80;99.90
49042;DHT22;34859;51.608;11.462;2023-08-06T10:52:34;20.70;99.90
49042;DHT22;34859;51.608;11.462;2023-08-06T10:54:59;20.60;99.90
49042;DHT22;34859;51.608;11.462;2023-08-06T10:57:27;20.50;99.90
49042;DHT22;34859;51.608;11.462;2023-08-06T10:59:54;20.40;99.90
49042;DHT22;34859;51.608;11.462;2023-08-06T11:02:19;20.20;99.90
49042;DHT22;34859;51.608;11.462;2023-08-06T11:04:45;20.10;99.90
49042;DHT22;34859;51.608;11.462;2023-08-06T11:07:10;20.10;99.90
49042;DHT22;34859;51.608;11.462;2023-08-06T11:09:37;20.00;99.90
49042;DHT22;34859;51.608;11.462;2023-08-06T11:12:08;20.00;99.90
49042;DHT22;34859;51.608;11.462;2023-08-06T11:14:34;20.00;99.90
49042;DHT22;34859;51.608;11.462;2023-08-06T11:17:00;20.00;99.90
49042;DHT22;34859;51.608;11.462;2023-08-06T11:19:28;20.10;99.90
49042;DHT22;34859;51.608;11.462;2023-08-06T11:21:54;20.00;99.90
49042;DHT22;34859;51.608;11.462;2023-08-06T11:24:20;20.10;99.90
49042;DHT22;34859;51.608;11.462;2023-08-06T11:26:47;20.10;99.90
49042;DHT22;34859;51.608;11.462;2023-08-06T11:29:12;20.20;99.90
49042;DHT22;34859;51.608;11.462;2023-08-06T11:31:40;20.30;99.90
49042;DHT22;34859;51.608;11.462;2023-08-06T11:34:07;20.40;99.90
49042;DHT22;34859;51.608;11.462;2023-08-06T11:36:33;20.40;99.90
49042;DHT22;34859;51.608;11.462;2023-08-06T11:38:59;20.60;99.90
49042;DHT22;34859;51.608;11.462;2023-08-06T11:41:25;20.70;99.90
49042;DHT22;34859;51.608;11.462;2023-08-06T11:44:11;20.70;99.90
49042;DHT22;34859;51.608;11.462;2023-08-06T11:46:57;20.70;99.90
49042;DHT22;34859;51.608;11.462;2023-08-06T11:49:46;20.70;99.90
49042;DHT22;34859;51.608;11.462;2023-08-06T11:52:32;20.90;99.90
49042;DHT22;34859;51.608;11.462;2023-08-06T11:57:31;21.00;99.90
49042;DHT22;34859;51.608;11.462;2023-08-06T12:00:01;20.90;99.90
49042;DHT22;34859;51.608;11.462;2023-08-06T12:02:28;20.80;99.90
49042;DHT22;34859;51.608;11.462;2023-08-06T12:05:00;20.70;99.90
49042;DHT22;34859;51.608;11.462;2023-08-06T12:07:28;21.00;99.90
49042;DHT22;34859;51.608;11.462;2023-08-06T12:09:54;21.30;99.90
49042;DHT22;34859;51.608;11.462;2023-08-06T12:12:20;21.30;99.90
49042;DHT22;34859;51.608;11.462;2023-08-06T12:14:47;21.30;99.90
49042;DHT22;34859;51.608;11.462;2023-08-06T12:17:12;21.30;99.90
49042;DHT22;34859;51.608;11.462;2023-08-06T12:19:38;21.50;99.90
49042;DHT22;34859;51.608;11.462;2023-08-06T12:22:04;21.60;99.90
49042;DHT22;34859;51.608;11.462;2023-08-06T12:24:29;21.70;99.90
49042;DHT22;34859;51.608;11.462;2023-08-06T12:26:57;21.80;99.90
49042;DHT22;34859;51.608;11.462;2023-08-06T12:29:25;21.70;99.90
49042;DHT22;34859;51.608;11.462;2023-08-06T12:31:51;21.50;99.90
49042;DHT22;34859;51.608;11.462;2023-08-06T12:34:17;21.30;99.90
49042;DHT22;34859;51.608;11.462;2023-08-06T12:36:42;21.20;99.90
49042;DHT22;34859;51.608;11.462;2023-08-06T12:39:08;21.20;99.90
49042;DHT22;34859;51.608;11.462;2023-08-06T12:41:33;21.10;99.90
49042;DHT22;34859;51.608;11.462;2023-08-06T12:43:59;21.10;99.90
49042;DHT22;34859;51.608;11.462;2023-08-06T12:46:25;21.40;99.90
49042;DHT22;34859;51.608;11.462;2023-08-06T12:48:50;21.60;99.90
49042;DHT22;34859;51.608;11.462;2023-08-06T12:51:17;21.80;99.90
49042;DHT22;34859;51.608;11.462;2023-08-06T12:53:42;21.80;99.90
49042;DHT22;34859;51.608;11.462;2023-08-06T12:56:08;22.00;99.90
49042;DHT22;34859;51.608;11.462;2023-08-06T12:58:34;21.90;99.90
49042;DHT22;34859;51.608;11.462;2023-08-06T13:00:59;21.80;99.90
49042;DHT22;34859;51.608;11.462;2023-08-06T13:03:25;21.80;99.90
49042;DHT22;34859;51.608;11.462;2023-08-06T13:05:50;22.10;99.90
49042;DHT22;34859;51.608;11.462;2023-08-06T13:08:19;22.20;99.90
49042;DHT22;34859;51.608;11.462;2023-08-06T13:10:47;22.00;99.90
49042;DHT22;34859;51.608;11.462;2023-08-06T13:13:12;21.80;99.90
49042;DHT22;34859;51.608;11.462;2023-08-06T13:15:38;21.60;99.90
49042;DHT22;34859;51.608;11.462;2023-08-06T13:18:03;21.50;99.90
49042;DHT22;34859;51.608;11.462;2023-08-06T13:20:30;21.60;99.90
49042;DHT22;34859;51.608;11.462;2023-08-06T13:22:58;21.90;99.90
49042;DHT22;34859;51.608;11.462;2023-08-06T13:25:23;22.20;99.90
49042;DHT22;34859;51.608;11.462;2023-08-06T13:27:50;22.30;99.90
49042;DHT22;34859;51.608;11.462;2023-08-06T13:30:17;22.40;99.90
49042;DHT22;34859;51.608;11.462;2023-08-06T13:32:43;22.60;99.90
49042;DHT22;34859;51.608;11.462;2023-08-06T13:35:10;22.70;99.90
49042;DHT22;34859;51.608;11.462;2023-08-06T13:37:37;22.70;99.90
49042;DHT22;34859;51.608;11.462;2023-08-06T13:40:02;22.60;99.90
49042;DHT22;34859;51.608;11.462;2023-08-06T13:42:29;22.60;99.90
49042;DHT22;34859;51.608;11.462;2023-08-06T13:44:54;22.70;99.90
49042;DHT22;34859;51.608;11.462;2023-08-06T13:47:27;22.90;99.90
49042;DHT22;34859;51.608;11.462;2023-08-06T13:49:53;22.90;99.90
49042;DHT22;34859;51.608;11.462;2023-08-06T13:52:19;23.10;99.90
49042;DHT22;34859;51.608;11.462;2023-08-06T13:54:44;23.10;99.90
49042;DHT22;34859;51.608;11.462;2023-08-06T13:57:10;23.00;99.90
49042;DHT22;34859;51.608;11.462;2023-08-06T13:59:37;23.00;99.90
49042;DHT22;34859;51.608;11.462;2023-08-06T14:02:03;22.70;99.90
49042;DHT22;34859;51.608;11.462;2023-08-06T14:04:29;22.60;99.90
49042;DHT22;34859;51.608;11.462;2023-08-06T14:06:54;22.60;99.90
49042;DHT22;34859;51.608;11.462;2023-08-06T14:09:20;22.60;99.90
49042;DHT22;34859;51.608;11.462;2023-08-06T14:11:48;22.60;99.90
49042;DHT22;34859;51.608;11.462;2023-08-06T14:14:13;22.50;99.90
49042;DHT22;34859;51.608;11.462;2023-08-06T14:16:39;22.50;99.90
49042;DHT22;34859;51.608;11.462;2023-08-06T14:19:05;22.60;99.90
49042;DHT22;34859;51.608;11.462;2023-08-06T14:21:30;22.90;99.90
49042;DHT22;34859;51.608;11.462;2023-08-06T14:23:57;23.10;99.90
49042;DHT22;34859;51.608;11.462;2023-08-06T14:26:22;23.20;99.90
49042;DHT22;34859;51.608;11.462;2023-08-06T14:28:48;23.20;99.90
49042;DHT22;34859;51.608;11.462;2023-08-06T14:31:14;23.30;99.90
49042;DHT22;34859;51.608;11.462;2023-08-06T14:33:39;23.20;99.90
49042;DHT22;34859;51.608;11.462;2023-08-06T14:36:05;23.10;99.90
49042;DHT22;34859;51.608;11.462;2023-08-06T14:38:31;23.20;99.90
49042;DHT22;34859;51.608;11.462;2023-08-06T14:40:57;23.10;99.90
49042;DHT22;34859;51.608;11.462;2023-08-06T14:43:22;23.00;99.90
49042;DHT22;34859;51.608;11.462;2023-08-06T14:45:53;22.80;99.90
49042;DHT22;34859;51.608;11.462;2023-08-06T14:48:19;22.70;99.90
49042;DHT22;34859;51.608;11.462;2023-08-06T14:50:44;22.60;99.90
49042;DHT22;34859;51.608;11.462;2023-08-06T14:53:10;22.50;99.90
49042;DHT22;34859;51.608;11.462;2023-08-06T14:55:37;22.50;99.90
49042;DHT22;34859;51.608;11.462;2023-08-06T14:58:02;22.40;99.90
49042;DHT22;34859;51.608;11.462;2023-08-06T15:00:28;22.20;99.90
49042;DHT22;34859;51.608;11.462;2023-08-06T15:02:54;22.10;99.90
49042;DHT22;34859;51.608;11.462;2023-08-06T15:05:19;21.90;99.90
49042;DHT22;34859;51.608;11.462;2023-08-06T15:07:47;21.90;99.90
49042;DHT22;34859;51.608;11.462;2023-08-06T15:10:13;21.90;99.90
49042;DHT22;34859;51.608;11.462;2023-08-06T15:12:39;21.80;99.90
49042;DHT22;34859;51.608;11.462;2023-08-06T15:15:05;21.80;99.90
49042;DHT22;34859;51.608;11.462;2023-08-06T15:17:31;21.80;99.90
49042;DHT22;34859;51.608;11.462;2023-08-06T15:19:57;21.90;99.90
49042;DHT22;34859;51.608;11.462;2023-08-06T15:22:23;21.80;99.90
49042;DHT22;34859;51.608;11.462;2023-08-06T15:24:50;21.80;99.90
49042;DHT22;34859;51.608;11.462;2023-08-06T15:27:17;21.80;99.90
49042;DHT22;34859;51.608;11.462;2023-08-06T15:29:44;21.90;99.90
49042;DHT22;34859;51.608;11.462;2023-08-06T15:32:09;22.00;99.90